• Join FlightAware (Why Join?)
  • Login
  • US Flag 
10:28AM EDT


 

Airport Tracker/Info


-or-


 

Live Flight TrackerFlight Track Log ✈ N42HN ✈ 28-Jun-2013 ✈ KLZU - KAKR

Flight Track Log - Related Links

Times and Time Zones

All times are in EDT time to prevent confusion due to time zone crossing. See the N42HN flight status page for this flight to view local times or setup timezone preferences in your user account.

Time Position Orientation Groundspeed Altitude Reporting Facility
EDT Latitude Longitude Course Direction KTS MPH feet Rate Location/Type
12:32PM 33.9833 -84.0167 North 205 236 2,800  Level Atlanta TRACON
12:33PM 34.0167 -84.0667 309° West 192 221 5,500 2,880 Climbing Atlanta TRACON
12:35PM 34.1344 -84.1692 324° Northwest 246 283 12,500 2,940 Climbing Atlanta Center
12:36PM 34.2075 -84.2119 334° Northwest 257 296 15,500 2,520 Climbing Atlanta Center
12:37PM 34.2889 -84.2247 353° North 270 311 17,600 1,740 Climbing Atlanta Center
12:38PM 34.4264 -84.2414 North  Level FlightAware Approximate
12:38PM 34.3828 -84.2428 351° North 310 357 19,000  Level Atlanta Center
12:39PM 34.4828 -84.2403 North 353 406 20,800 1,860 Climbing Atlanta Center
12:40PM 34.5872 -84.2103 13° North 366 421 22,800 1,680 Climbing Atlanta Center
12:41PM 34.6811 -84.1903 10° North 371 427 24,200 1,140 Climbing Atlanta Center
12:42PM 34.7917 -84.1653 11° North 378 435 25,100 1,080 Climbing Atlanta Center
12:43PM 34.9044 -84.1375 11° North 391 450 26,400 1,260 Climbing Atlanta Center
12:44PM 35.0192 -84.1122 10° North 404 465 27,700 1,200 Climbing Atlanta Center
12:45PM 35.1342 -84.0819 12° North 410 472 28,800 1,020 Climbing Atlanta Center
12:46PM 35.2489 -84.0567 10° North 410 472 29,800 1,020 Climbing Atlanta Center
12:47PM 35.3636 -84.0261 12° North 410 472 30,900 1,080 Climbing Atlanta Center
12:48PM 35.4806 -84.0006 10° North 415 478 32,000 1,080 Climbing Atlanta Center
12:49PM 35.5931 -83.9697 13° North 415 478 33,100 960 Climbing Atlanta Center
12:50PM 35.7058 -83.9492 North 410 472 34,000 420 Climbing Atlanta Center
12:51PM 35.8206 -83.9158 13° North 415 478 34,000  Level Atlanta Center
12:52PM 35.9372 -83.8847 12° North 415 478 34,000  Level Atlanta Center
12:53PM 36.0497 -83.8306 21° North 415 478 34,000 240 Level Atlanta Center
12:54PM 36.1625 -83.7828 19° North 437 503 34,500 480 Climbing Indianapolis Center
12:55PM 36.2756 -83.7314 20° North 435 501 35,000 240 Climbing Indianapolis Center
12:56PM 36.3892 -83.6822 19° North 433 498 35,000  Level Indianapolis Center
12:57PM 36.5025 -83.6289 21° North 437 503 35,000  Level Indianapolis Center
12:58PM 36.6269 -83.5764 19° North 439 505 35,000  Level Indianapolis Center
01:00PM 36.7417 -83.5242 20° North 437 503 35,000  Level Indianapolis Center
01:01PM 36.8558 -83.4703 21° North 435 501 35,000  Level Indianapolis Center
01:02PM 36.9917 -83.4117 19° North 439 505 35,000  Level Indianapolis Center
01:03PM 37.1078 -83.3575 20° North 440 506 35,000  Level Indianapolis Center
01:04PM 37.2258 -83.3017 21° North 448 516 35,000  Level Indianapolis Center
01:05PM 37.3431 -83.2511 19° North 443 510 35,000  Level Indianapolis Center
01:06PM 37.4606 -83.1928 22° Northeast 450 518 35,000  Level Indianapolis Center
01:07PM 37.5783 -83.1433 18° North 444 511 35,000  Level Indianapolis Center
01:08PM 37.6986 -83.0836 21° North 458 527 35,000  Level Indianapolis Center
01:09PM 37.8367 -83.0200 20° North 453 521 35,000  Level Indianapolis Center
01:10PM 37.9550 -82.9636 21° North 458 527 35,000  Level Indianapolis Center
01:11PM 38.0728 -82.9078 20° North 456 525 35,000  Level Indianapolis Center
01:12PM 38.1939 -82.8581 18° North 458 527 35,000  Level Indianapolis Center
01:13PM 38.3122 -82.7986 22° Northeast 455 524 35,000  Level Indianapolis Center
01:14PM 38.4311 -82.7472 19° North 450 518 35,000  Level Indianapolis Center
01:15PM 38.5483 -82.6858 22° Northeast 456 525 35,000  Level Indianapolis Center
01:16PM 38.6647 -82.6356 19° North 451 519 35,000 -1,020 Level Indianapolis Center
01:17PM 38.8053 -82.5653 21° North 449 517 33,000 -1,500 Descending Indianapolis Center
01:18PM 38.9264 -82.5122 19° North 457 526 32,000 -780 Descending Indianapolis Center
01:19PM 39.0458 -82.4511 22° Northeast 458 527 31,400 -1,260 Descending Indianapolis Center
01:20PM 39.1658 -82.3958 20° North 457 526 29,500 -1,920 Descending Indianapolis Center
01:21PM 39.2908 -82.3347 21° North 470 541 27,500 -1,800 Descending Indianapolis Center
01:22PM 39.4147 -82.2744 21° North 474 545 25,900 -1,740 Descending Indianapolis Center
01:23PM 39.5458 -82.2119 20° North 453 521 24,000 -960 Descending Indianapolis Center
01:24PM 39.6614 -82.1550 21° North 444 511 24,000  Level Indianapolis Center
01:25PM 39.7753 -82.1006 20° North 434 499 24,000 -1,260 Level Indianapolis Center
01:26PM 39.8817 -82.0458 22° Northeast 412 474 21,500 -2,280 Descending Indianapolis Center
01:27PM 39.9942 -81.9914 20° North 426 490 19,300 -2,040 Descending Indianapolis Center
01:28PM 40.0936 -81.9419 21° North 383 441 17,300 -2,280 Descending Indianapolis Center
01:29PM 40.1992 -81.8878 21° North 350 403 14,700 -2,040 Descending Indianapolis Center
01:30PM 40.2764 -81.8533 19° North 339 390 13,200 -1,800 Descending Indianapolis Center
01:31PM 40.3694 -81.8028 22° Northeast 309 356 11,100 -1,920 Descending Indianapolis Center
01:32PM 40.4422 -81.7497 29° Northeast 301 346 9,300 -1,380 Descending Indianapolis Center
01:33PM 40.4997 -81.6819 42° Northeast 276 318 8,300 -1,080 Descending Indianapolis Center
01:35PM 40.5528 -81.6181 42° Northeast 260 299 7,100 -780 Descending Indianapolis Center
01:35PM 40.5922 -81.5756 39° Northeast 256 295 7,000  Descending Cleveland Center
01:36PM 40.6489 -81.5272 33° Northeast 251 289 7,100 -360 Climbing Cleveland Center
01:37PM 40.7058 -81.4706 37° Northeast 251 289 6,300 -1,020 Descending Cleveland Center
01:38PM 40.7686 -81.4331 24° Northeast 246 283 5,100 -660 Descending Cleveland Center
01:39PM 40.8372 -81.4367 358° North 227 261 5,000 -60 Descending Cleveland Center
01:40PM 40.8936 -81.4456 353° North 215 247 5,000 -180 Level Cleveland Center
01:41PM 40.9561 -81.4547 354° North 220 253 4,700 -720 Descending Cleveland Center
01:42PM 41.0081 -81.4608 355° North 220 253 3,600 -1,140 Descending Cleveland Center